Airfield :
LOGIN :

Register | Disclaimer

   EN    FR    IT 

 










Legend :    VFR   Marginal VFR   IFR   Intensive IFR   Very Intensive IFR
Visi :
Ceiling :
>= 8 km
>= 3000ft
5 to 8 km
1000 to 3000 ft
1500m to 5 km
500 to 1000 ft
800 to 1500m
200 to 500 ft
< 800m
< 200 ft
Symbols :   Thunderstorms  Fog  Heavy snow  Heavy precipitations  Wind > 20 kt
SIGMETs :     Misc.  Thunderstorms  Icing  Turbulence  Mountain Waves  Volcanic Ashes







- Airport Elevation : 580 ft
- Download approach charts


LFOA - Avord

CURRENT METAR :
  • 230000Z AUTO 26007KT CAVOK 09/07 Q1024

EXPIRED METARs :
  • 222330Z AUTO 25009KT CAVOK 10/07 Q1024
  • 222300Z AUTO 24009KT 9999 FEW034 BKN058 OVC068 10/07 Q1024
  • 222230Z AUTO 26006KT 9999 BKN034 BKN040 BKN046 10/07 Q1025
  • 222200Z AUTO 25005KT 9999 BKN035 BKN042 OVC050 10/07 Q1025
  • 222130Z AUTO 25006KT 9999 BKN044 BKN052 OVC066 10/07 Q1024

Expired Forecast.
No reported NOTAMs for that airfield.
1 SIGMET reported for the Paris FIR (LFFF) :
 
Severe turbulence
LFFF SIGMET 6 VALID 222300/230300 LFPW
LFFF PARIS FIR/UIR SEV TURB FCST E OF LINE N5045 E00315 - N4745 E00445 FL220/320 MOV E 15KT NC=



MET'MAP, your aeronautical weather chart ! - Copyright ORBIFLY December 2007 - Disclaimer

ORBIFLY MET'MAP TEAM :

Programming & Development : Alexandra Zaïnal
Concept & Development : Baudouin d'Aumeries
Co-Development & Prog : Marc-Olivier Méhu
Technical & hardware support : Manuel Goepfert

Contact : metmap@orbifly.com




SOURCES & CREDITS :

   NOAA